Eems Servant — PBTI — position and weather

sailwx.info

Track history (hours):
 
Tides and Currents Weather Stations Pressure Air Temp Water Temp Dewpoint Dewpoint Depression Visibility Wind Speed Wind Dir Waves Ship Positions

Eems Servant

Last reported at 2014-Jul-18 11:27 UTC. Time now 2014-Jul-23 03:20 UTC.
Position N 54°07' E 003°46'.

Length 87 m; draft 3.5 m.

Type: Cargo ship. MMSI: 246236000.

Date/timePositionNaut miles runAvg speedWind from/ knotsBaromVisibWave heightAir tempDewpointWater temp
2014-Jul-18 11:27N 54°07' E 003°46'10 9.2
2014-Jul-18 10:22N 53°57' E 003°45'7 9.3
2014-Jul-18 09:33N 53°50' E 003°41'39 9.7
2014-Jul-18 05:32N 53°11' E 003°29'9 9.4
2014-Jul-18 04:33N 53°02' E 003°30'9 8.9
2014-Jul-18 03:33N 52°53' E 003°31'9 8.5
2014-Jul-18 02:30N 52°44' E 003°32'8 8.3
2014-Jul-18 01:32N 52°36' E 003°33'8 8.0
2014-Jul-18 00:33N 52°29' E 003°33'8 7.8
2014-Jul-17 23:33N 52°21' E 003°32'8 8.2
2014-Jul-17 22:33N 52°12' E 003°32'8 7.9
2014-Jul-17 21:33N 52°06' E 003°40'9 9.2
2014-Jul-17 20:33N 52°03' E 003°54'9 9.4
2014-Jul-17 19:33N 51°59' E 004°07'8 8.3
2014-Jul-17 18:33N 51°54' E 004°18'4 3.9
2014-Jul-17 17:33N 51°55' E 004°25'0 0.0
2014-Jul-17 16:33N 51°55' E 004°25'0 0.0
2014-Jul-17 15:27N 51°55' E 004°25'0 0.0
2014-Jul-17 14:33N 51°55' E 004°25'163163.0
2014-Jul-17 13:33N 51°55' E 000°00'163163.0
2014-Jul-17 12:33N 51°55' E 004°25'0 0.0
2014-Jul-17 11:33N 51°55' E 004°25'0 0.0
2014-Jul-17 10:33N 51°55' E 004°25'0 0.0
2014-Jul-17 09:33N 51°55' E 004°25'0 0.0
2014-Jul-17 08:30N 51°55' E 004°25'0 0.0
2014-Jul-17 07:33N 51°55' E 004°25'0 0.0
2014-Jul-17 06:33N 51°55' E 004°25'0 0.0
2014-Jul-17 05:33N 51°55' E 004°25'0 0.0
2014-Jul-17 04:33N 51°55' E 004°25'0 0.0
2014-Jul-17 03:30N 51°55' E 004°25'0 0.0
2014-Jul-17 02:33N 51°55' E 004°25'0 0.0
2014-Jul-17 01:33N 51°55' E 004°25'0 0.0
2014-Jul-17 00:33N 51°55' E 004°25'0 0.0
2014-Jul-16 23:30N 51°55' E 004°25'0 0.0
2014-Jul-16 22:33N 51°55' E 004°25'0 0.0
2014-Jul-16 21:33N 51°55' E 004°25'0 0.0
2014-Jul-16 20:33N 51°55' E 004°25'0 0.0
2014-Jul-16 19:33N 51°55' E 004°25'0 0.0
2014-Jul-16 18:30N 51°55' E 004°25'0 0.0
2014-Jul-16 17:30N 51°55' E 004°25'0 0.0
2014-Jul-16 16:30N 51°55' E 004°25'0 0.0
2014-Jul-16 15:33N 51°55' E 004°25'0 0.0
2014-Jul-16 14:27N 51°55' E 004°25'0 0.0
2014-Jul-16 13:33N 51°55' E 004°25'2 1.8
2014-Jul-16 12:33N 51°54' E 004°28'0 0.1
2014-Jul-16 11:33N 51°54' E 004°28'0 0.0
2014-Jul-16 10:33N 51°54' E 004°28'0 0.0
2014-Jul-16 09:33N 51°54' E 004°28'0 0.0
2014-Jul-16 08:33N 51°54' E 004°28'0 0.0
2014-Jul-16 07:33N 51°54' E 004°28'0 0.0
2014-Jul-16 06:33N 51°54' E 004°28'0 0.0
2014-Jul-16 05:33N 51°54' E 004°28'0 0.0
2014-Jul-16 04:33N 51°54' E 004°28'0 0.0
2014-Jul-16 03:33N 51°54' E 004°28'0 0.0
2014-Jul-16 02:33N 51°54' E 004°28'0 0.0
2014-Jul-16 01:33N 51°54' E 004°28'0 0.0
2014-Jul-16 00:33N 51°54' E 004°28'0 0.0
2014-Jul-15 23:21N 51°54' E 004°28'0 0.0
2014-Jul-15 22:27N 51°54' E 004°28'0 0.0
2014-Jul-15 21:24N 51°54' E 004°28'0 0.0
2014-Jul-15 20:33N 51°54' E 004°28'0 0.0
2014-Jul-15 19:33N 51°54' E 004°28'0 0.0
2014-Jul-15 18:33N 51°54' E 004°28'0 0.0
2014-Jul-15 17:30N 51°54' E 004°28'0 0.0
2014-Jul-15 16:33N 51°54' E 004°28'0 0.0
2014-Jul-15 15:33N 51°54' E 004°28'0 0.0
2014-Jul-15 14:30N 51°54' E 004°28'0 0.0
2014-Jul-15 13:33N 51°54' E 004°28'0 0.0
2014-Jul-15 12:30N 51°54' E 004°28'0 0.0
2014-Jul-15 11:33N 51°54' E 004°28'0 0.0
2014-Jul-15 10:33N 51°54' E 004°28'0 0.0
2014-Jul-15 09:33N 51°54' E 004°28'0 0.0
2014-Jul-15 08:33N 51°54' E 004°28'0 0.0
2014-Jul-15 07:33N 51°54' E 004°28'0 0.0
2014-Jul-15 06:33N 51°54' E 004°28'0 0.0
2014-Jul-15 05:33N 51°54' E 004°28'0 0.0
2014-Jul-15 04:33N 51°54' E 004°28'0 0.0
2014-Jul-15 03:33N 51°54' E 004°28'0 0.0
2014-Jul-15 02:33N 51°54' E 004°28'2 2.1
2014-Jul-15 01:33N 51°55' E 004°31'9 8.9
2014-Jul-15 00:34N 51°49' E 004°42'1110.8
2014-Jul-14 23:33N 51°49' E 004°60'1111.5
2014-Jul-14 22:33N 51°49' E 005°18'  
2014-Jul-12 17:33N 51°51' E 005°25'5 4.5
2014-Jul-12 16:34N 51°49' E 005°18'6 6.4
2014-Jul-12 15:34N 51°49' E 005°08'7 7.0
2014-Jul-12 14:31N 51°50' E 004°56'7 7.6
2014-Jul-12 13:33N 51°49' E 004°45'9 7.0
2014-Jul-12 12:19N 51°54' E 004°33'3 4.4
2014-Jul-12 11:33N 51°54' E 004°28'0 0.0
2014-Jul-12 10:33N 51°54' E 004°28'0 0.0
2014-Jul-12 09:33N 51°54' E 004°28'8 7.6
2014-Jul-12 08:33N 51°55' E 004°15'8 7.6
2014-Jul-12 07:33N 51°59' E 004°05'8 7.7
2014-Jul-12 06:33N 52°00' E 003°53'7 7.1
2014-Jul-12 05:33N 52°06' E 003°47'8 8.3
2014-Jul-12 04:33N 52°15' E 003°47'8 8.2
2014-Jul-12 03:33N 52°23' E 003°49'8 8.1
2014-Jul-12 02:33N 52°31' E 003°52'11 7.8
2014-Jul-12 01:05N 52°42' E 003°56'7 7.9
2014-Jul-12 00:14N 52°49' E 003°58'8 8.1
2014-Jul-11 23:18N 52°56' E 004°00'6 8.4
2014-Jul-11 22:32N 53°01' E 004°07'9 9.0
2014-Jul-11 21:33N 53°07' E 004°18'9 8.6
2014-Jul-11 20:33N 53°14' E 004°27'10 9.2
2014-Jul-11 19:31N 53°23' E 004°32'8 8.9
2014-Jul-11 18:33N 53°31' E 004°37'8 8.4
2014-Jul-11 17:33N 53°39' E 004°41'8 8.2
2014-Jul-11 16:33N 53°46' E 004°46'8 8.2
2014-Jul-11 15:33N 53°54' E 004°51'8 8.3
2014-Jul-11 14:33N 54°02' E 004°56'9 8.7
2014-Jul-11 13:33N 54°10' E 005°00'13 8.8
2014-Jul-11 12:04N 54°23' E 005°08'5 8.7
2014-Jul-11 11:32N 54°27' E 005°10'8 8.6
2014-Jul-11 10:33N 54°35' E 005°15'9 8.6
2014-Jul-11 09:33N 54°43' E 005°19'9 8.7
2014-Jul-11 08:33N 54°52' E 005°24'9 8.6
2014-Jul-11 07:31N 55°00' E 005°29'8 8.4
2014-Jul-11 06:33N 55°08' E 005°33'184 8.2
2014-Jul-10 08:08N 58°11' E 005°31'5 8.7
2014-Jul-10 07:31N 58°17' E 005°31'10 8.4
2014-Jul-10 06:21N 58°26' E 005°29'6 7.9
2014-Jul-10 05:32N 58°33' E 005°27'8 7.6
2014-Jul-10 04:33N 58°40' E 005°24'7 7.4
2014-Jul-10 03:33N 58°48' E 005°23'8 7.7
2014-Jul-10 02:33N 58°55' E 005°20'8 7.9
2014-Jul-10 01:33N 59°03' E 005°19'8 7.8
2014-Jul-10 00:33N 59°09' E 005°29'10 9.5
2014-Jul-09 23:33N 59°15' E 005°42'9 9.4
2014-Jul-09 22:33N 59°21' E 005°58'  
Track history (hours):
 
Tides and Currents Weather Stations Pressure Air Temp Water Temp Dewpoint Dewpoint Depression Visibility Wind Speed Wind Dir Waves Ship Positions

Eems Servant

Last reported at 2014-Jul-18 11:27 UTC. Time now 2014-Jul-23 03:20 UTC.
Position N 54°07' E 003°46'.

Length 87 m; draft 3.5 m.

Type: Cargo ship. MMSI: 246236000.

Date/timePositionNaut miles runAvg speedWind from/ knotsBaromVisibWave heightAir tempDewpointWater temp
2014-Jul-18 11:27N 54°07' E 003°46'10 9.2
2014-Jul-18 10:22N 53°57' E 003°45'7 9.3
2014-Jul-18 09:33N 53°50' E 003°41'39 9.7
2014-Jul-18 05:32N 53°11' E 003°29'9 9.4
2014-Jul-18 04:33N 53°02' E 003°30'9 8.9
2014-Jul-18 03:33N 52°53' E 003°31'9 8.5
2014-Jul-18 02:30N 52°44' E 003°32'8 8.3
2014-Jul-18 01:32N 52°36' E 003°33'8 8.0
2014-Jul-18 00:33N 52°29' E 003°33'8 7.8
2014-Jul-17 23:33N 52°21' E 003°32'8 8.2
2014-Jul-17 22:33N 52°12' E 003°32'8 7.9
2014-Jul-17 21:33N 52°06' E 003°40'9 9.2
2014-Jul-17 20:33N 52°03' E 003°54'9 9.4
2014-Jul-17 19:33N 51°59' E 004°07'8 8.3
2014-Jul-17 18:33N 51°54' E 004°18'4 3.9
2014-Jul-17 17:33N 51°55' E 004°25'0 0.0
2014-Jul-17 16:33N 51°55' E 004°25'0 0.0
2014-Jul-17 15:27N 51°55' E 004°25'0 0.0
2014-Jul-17 14:33N 51°55' E 004°25'163163.0
2014-Jul-17 13:33N 51°55' E 000°00'163163.0
2014-Jul-17 12:33N 51°55' E 004°25'0 0.0
2014-Jul-17 11:33N 51°55' E 004°25'0 0.0
2014-Jul-17 10:33N 51°55' E 004°25'0 0.0
2014-Jul-17 09:33N 51°55' E 004°25'0 0.0
2014-Jul-17 08:30N 51°55' E 004°25'0 0.0
2014-Jul-17 07:33N 51°55' E 004°25'0 0.0
2014-Jul-17 06:33N 51°55' E 004°25'0 0.0
2014-Jul-17 05:33N 51°55' E 004°25'0 0.0
2014-Jul-17 04:33N 51°55' E 004°25'0 0.0
2014-Jul-17 03:30N 51°55' E 004°25'0 0.0
2014-Jul-17 02:33N 51°55' E 004°25'0 0.0
2014-Jul-17 01:33N 51°55' E 004°25'0 0.0
2014-Jul-17 00:33N 51°55' E 004°25'0 0.0
2014-Jul-16 23:30N 51°55' E 004°25'0 0.0
2014-Jul-16 22:33N 51°55' E 004°25'0 0.0
2014-Jul-16 21:33N 51°55' E 004°25'0 0.0
2014-Jul-16 20:33N 51°55' E 004°25'0 0.0
2014-Jul-16 19:33N 51°55' E 004°25'0 0.0
2014-Jul-16 18:30N 51°55' E 004°25'0 0.0
2014-Jul-16 17:30N 51°55' E 004°25'0 0.0
2014-Jul-16 16:30N 51°55' E 004°25'0 0.0
2014-Jul-16 15:33N 51°55' E 004°25'0 0.0
2014-Jul-16 14:27N 51°55' E 004°25'0 0.0
2014-Jul-16 13:33N 51°55' E 004°25'2 1.8
2014-Jul-16 12:33N 51°54' E 004°28'0 0.1
2014-Jul-16 11:33N 51°54' E 004°28'0 0.0
2014-Jul-16 10:33N 51°54' E 004°28'0 0.0
2014-Jul-16 09:33N 51°54' E 004°28'0 0.0
2014-Jul-16 08:33N 51°54' E 004°28'0 0.0
2014-Jul-16 07:33N 51°54' E 004°28'0 0.0
2014-Jul-16 06:33N 51°54' E 004°28'0 0.0
2014-Jul-16 05:33N 51°54' E 004°28'0 0.0
2014-Jul-16 04:33N 51°54' E 004°28'0 0.0
2014-Jul-16 03:33N 51°54' E 004°28'0 0.0
2014-Jul-16 02:33N 51°54' E 004°28'0 0.0
2014-Jul-16 01:33N 51°54' E 004°28'0 0.0
2014-Jul-16 00:33N 51°54' E 004°28'0 0.0
2014-Jul-15 23:21N 51°54' E 004°28'0 0.0
2014-Jul-15 22:27N 51°54' E 004°28'0 0.0
2014-Jul-15 21:24N 51°54' E 004°28'0 0.0
2014-Jul-15 20:33N 51°54' E 004°28'0 0.0
2014-Jul-15 19:33N 51°54' E 004°28'0 0.0
2014-Jul-15 18:33N 51°54' E 004°28'0 0.0
2014-Jul-15 17:30N 51°54' E 004°28'0 0.0
2014-Jul-15 16:33N 51°54' E 004°28'0 0.0
2014-Jul-15 15:33N 51°54' E 004°28'0 0.0
2014-Jul-15 14:30N 51°54' E 004°28'0 0.0
2014-Jul-15 13:33N 51°54' E 004°28'0 0.0
2014-Jul-15 12:30N 51°54' E 004°28'0 0.0
2014-Jul-15 11:33N 51°54' E 004°28'0 0.0
2014-Jul-15 10:33N 51°54' E 004°28'0 0.0
2014-Jul-15 09:33N 51°54' E 004°28'0 0.0
2014-Jul-15 08:33N 51°54' E 004°28'0 0.0
2014-Jul-15 07:33N 51°54' E 004°28'0 0.0
2014-Jul-15 06:33N 51°54' E 004°28'0 0.0
2014-Jul-15 05:33N 51°54' E 004°28'0 0.0
2014-Jul-15 04:33N 51°54' E 004°28'0 0.0
2014-Jul-15 03:33N 51°54' E 004°28'0 0.0
2014-Jul-15 02:33N 51°54' E 004°28'2 2.1
2014-Jul-15 01:33N 51°55' E 004°31'9 8.9
2014-Jul-15 00:34N 51°49' E 004°42'1110.8
2014-Jul-14 23:33N 51°49' E 004°60'1111.5
2014-Jul-14 22:33N 51°49' E 005°18'  
2014-Jul-12 17:33N 51°51' E 005°25'5 4.5
2014-Jul-12 16:34N 51°49' E 005°18'6 6.4
2014-Jul-12 15:34N 51°49' E 005°08'7 7.0
2014-Jul-12 14:31N 51°50' E 004°56'7 7.6
2014-Jul-12 13:33N 51°49' E 004°45'9 7.0
2014-Jul-12 12:19N 51°54' E 004°33'3 4.4
2014-Jul-12 11:33N 51°54' E 004°28'0 0.0
2014-Jul-12 10:33N 51°54' E 004°28'0 0.0
2014-Jul-12 09:33N 51°54' E 004°28'8 7.6
2014-Jul-12 08:33N 51°55' E 004°15'8 7.6
2014-Jul-12 07:33N 51°59' E 004°05'8 7.7
2014-Jul-12 06:33N 52°00' E 003°53'7 7.1
2014-Jul-12 05:33N 52°06' E 003°47'8 8.3
2014-Jul-12 04:33N 52°15' E 003°47'8 8.2
2014-Jul-12 03:33N 52°23' E 003°49'8 8.1
2014-Jul-12 02:33N 52°31' E 003°52'11 7.8
2014-Jul-12 01:05N 52°42' E 003°56'7 7.9
2014-Jul-12 00:14N 52°49' E 003°58'8 8.1
2014-Jul-11 23:18N 52°56' E 004°00'6 8.4
2014-Jul-11 22:32N 53°01' E 004°07'9 9.0
2014-Jul-11 21:33N 53°07' E 004°18'9 8.6
2014-Jul-11 20:33N 53°14' E 004°27'10 9.2
2014-Jul-11 19:31N 53°23' E 004°32'8 8.9
2014-Jul-11 18:33N 53°31' E 004°37'8 8.4
2014-Jul-11 17:33N 53°39' E 004°41'8 8.2
2014-Jul-11 16:33N 53°46' E 004°46'8 8.2
2014-Jul-11 15:33N 53°54' E 004°51'8 8.3
2014-Jul-11 14:33N 54°02' E 004°56'9 8.7
2014-Jul-11 13:33N 54°10' E 005°00'13 8.8
2014-Jul-11 12:04N 54°23' E 005°08'5 8.7
2014-Jul-11 11:32N 54°27' E 005°10'8 8.6
2014-Jul-11 10:33N 54°35' E 005°15'9 8.6
2014-Jul-11 09:33N 54°43' E 005°19'9 8.7
2014-Jul-11 08:33N 54°52' E 005°24'9 8.6
2014-Jul-11 07:31N 55°00' E 005°29'8 8.4
2014-Jul-11 06:33N 55°08' E 005°33'184 8.2
2014-Jul-10 08:08N 58°11' E 005°31'5 8.7
2014-Jul-10 07:31N 58°17' E 005°31'10 8.4
2014-Jul-10 06:21N 58°26' E 005°29'6 7.9
2014-Jul-10 05:32N 58°33' E 005°27'8 7.6
2014-Jul-10 04:33N 58°40' E 005°24'7 7.4
2014-Jul-10 03:33N 58°48' E 005°23'8 7.7
2014-Jul-10 02:33N 58°55' E 005°20'8 7.9
2014-Jul-10 01:33N 59°03' E 005°19'8 7.8
2014-Jul-10 00:33N 59°09' E 005°29'10 9.5
2014-Jul-09 23:33N 59°15' E 005°42'9 9.4
2014-Jul-09 22:33N 59°21' E 005°58'  

Dump ship's entire track history